createdAt,value
2023-06-04T00:01:16.577Z,64.64
2023-06-04T00:03:43.966Z,64.77
2023-06-04T00:06:10.816Z,65.00
2023-06-04T00:08:37.372Z,65.15
2023-06-04T00:11:04.258Z,65.28
2023-06-04T00:13:31.075Z,65.46
2023-06-04T00:15:57.701Z,65.37
2023-06-04T00:18:24.311Z,65.38
2023-06-04T00:20:51.069Z,65.59
2023-06-04T00:23:18.062Z,65.59
2023-06-04T00:25:44.700Z,65.83
2023-06-04T00:28:12.328Z,65.97
2023-06-04T00:30:38.878Z,66.23
2023-06-04T00:33:05.536Z,66.38
2023-06-04T00:35:33.709Z,66.37
2023-06-04T00:38:00.479Z,66.43
2023-06-04T00:40:27.088Z,66.23
2023-06-04T00:42:53.694Z,66.32
2023-06-04T00:45:21.307Z,66.52
2023-06-04T00:47:48.417Z,66.37
2023-06-04T00:50:15.250Z,66.95
2023-06-04T00:52:42.678Z,67.00
2023-06-04T00:55:10.832Z,67.34
2023-06-04T00:57:38.846Z,67.43
2023-06-04T01:00:07.311Z,67.59
2023-06-04T01:02:38.287Z,67.45
2023-06-04T01:05:13.945Z,67.77
2023-06-04T01:07:42.013Z,67.72
2023-06-04T01:10:09.155Z,67.91
2023-06-04T01:12:36.073Z,68.11
2023-06-04T01:15:02.699Z,68.29
2023-06-04T01:17:40.100Z,68.48
2023-06-04T01:20:14.097Z,68.61
2023-06-04T01:22:52.923Z,68.79
2023-06-04T01:25:33.520Z,68.93
2023-06-04T01:28:01.747Z,68.97
2023-06-04T01:30:47.186Z,69.38
2023-06-04T01:33:16.014Z,69.38
2023-06-04T01:35:42.807Z,69.45
2023-06-04T01:38:10.421Z,69.47
2023-06-04T01:40:37.946Z,69.76
2023-06-04T01:43:05.073Z,69.74
2023-06-04T01:45:31.784Z,69.98
2023-06-04T01:47:58.457Z,70.13
2023-06-04T01:50:25.488Z,70.42
2023-06-04T01:52:52.315Z,70.34
2023-06-04T01:55:20.117Z,70.69
2023-06-04T01:57:48.261Z,70.61
2023-06-04T02:00:15.538Z,70.73
2023-06-04T02:02:44.138Z,70.83
2023-06-04T02:05:11.463Z,70.79
2023-06-04T02:07:40.143Z,70.91
2023-06-04T02:10:11.731Z,70.80
2023-06-04T02:12:40.573Z,70.87
2023-06-04T02:15:08.645Z,70.97
2023-06-04T02:17:38.699Z,71.21
2023-06-04T02:20:10.783Z,71.27
2023-06-04T02:22:37.566Z,71.84
2023-06-04T02:25:05.335Z,71.47
2023-06-04T02:27:32.472Z,71.89
2023-06-04T02:29:59.148Z,71.84
2023-06-04T02:32:26.012Z,71.73
2023-06-04T02:34:52.809Z,71.66
2023-06-04T02:37:19.604Z,71.84
2023-06-04T02:39:46.209Z,72.07
2023-06-04T02:42:12.922Z,71.82
2023-06-04T02:44:39.473Z,71.98
2023-06-04T02:47:06.670Z,71.88
2023-06-04T02:49:33.404Z,72.04
2023-06-04T02:51:59.956Z,72.15
2023-06-04T02:54:26.510Z,72.13
2023-06-04T02:56:53.317Z,72.36
2023-06-04T02:59:20.192Z,72.34
2023-06-04T03:01:47.567Z,72.25
2023-06-04T03:04:16.834Z,72.26
2023-06-04T03:06:47.448Z,72.31
2023-06-04T03:09:14.868Z,72.31
2023-06-04T03:11:41.573Z,72.66
2023-06-04T03:14:08.211Z,72.53
2023-06-04T03:16:34.800Z,72.63
2023-06-04T03:19:02.082Z,72.64
2023-06-04T03:21:30.158Z,72.53
2023-06-04T03:23:57.116Z,72.34
2023-06-04T03:26:23.932Z,72.33
2023-06-04T03:28:50.643Z,72.17
2023-06-04T03:31:17.320Z,72.21
2023-06-04T03:33:44.013Z,72.21
2023-06-04T03:36:10.695Z,72.34
2023-06-04T03:38:37.846Z,72.38
2023-06-04T03:41:04.666Z,72.56
2023-06-04T03:43:31.414Z,72.43
2023-06-04T03:45:58.039Z,72.32
2023-06-04T03:48:24.653Z,72.45
2023-06-04T03:50:51.828Z,72.28
2023-06-04T03:53:18.389Z,72.16
2023-06-04T03:55:45.017Z,72.08
2023-06-04T03:58:12.989Z,72.12
2023-06-04T04:00:39.603Z,72.30
2023-06-04T04:03:10.756Z,72.15
2023-06-04T04:05:38.163Z,72.08
2023-06-04T04:08:08.884Z,72.10
2023-06-04T04:10:36.071Z,71.88
2023-06-04T04:13:02.971Z,71.93
2023-06-04T04:15:29.957Z,71.74
2023-06-04T04:17:56.669Z,71.62
2023-06-04T04:20:23.817Z,71.29
2023-06-04T04:22:51.782Z,71.36
2023-06-04T04:25:18.443Z,71.24
2023-06-04T04:27:45.251Z,71.46
2023-06-04T04:30:13.796Z,71.43
2023-06-04T04:32:50.121Z,71.32
2023-06-04T04:35:19.287Z,71.54
2023-06-04T04:37:46.554Z,71.37
2023-06-04T04:40:14.753Z,71.44
2023-06-04T04:42:42.725Z,71.40
2023-06-04T04:45:10.084Z,71.33
2023-06-04T04:47:36.722Z,71.23
2023-06-04T04:50:03.548Z,71.38
2023-06-04T04:52:30.138Z,71.06
2023-06-04T04:54:58.548Z,71.24
2023-06-04T04:57:25.220Z,71.16
2023-06-04T04:59:51.795Z,71.31
2023-06-04T05:02:18.507Z,71.53
2023-06-04T05:04:45.190Z,71.48
2023-06-04T05:07:11.736Z,71.31
2023-06-04T05:09:40.299Z,71.27
2023-06-04T05:12:07.839Z,71.56
2023-06-04T05:14:36.792Z,71.64
2023-06-04T05:17:07.475Z,71.58
2023-06-04T05:19:34.536Z,71.78
2023-06-04T05:22:04.179Z,71.76
2023-06-04T05:24:33.038Z,71.62
2023-06-04T05:26:59.674Z,71.62
2023-06-04T05:29:26.242Z,71.59
2023-06-04T05:31:52.962Z,71.40
2023-06-04T05:34:22.574Z,71.17
2023-06-04T05:36:49.553Z,71.06
2023-06-04T05:39:16.186Z,70.93
2023-06-04T05:41:43.568Z,70.73
2023-06-04T05:44:10.201Z,70.44
2023-06-04T05:46:37.230Z,70.09
2023-06-04T05:49:03.874Z,69.65
2023-06-04T05:51:30.929Z,69.91
2023-06-04T05:53:57.543Z,69.37
2023-06-04T05:56:24.081Z,69.48
2023-06-04T05:58:54.069Z,68.68
2023-06-04T06:01:21.204Z,68.27
2023-06-04T06:03:47.988Z,67.75
2023-06-04T06:06:14.701Z,67.66
2023-06-04T06:08:41.332Z,67.81
2023-06-04T06:11:10.946Z,67.64
2023-06-04T06:13:38.087Z,67.24
2023-06-04T06:16:05.802Z,67.14
2023-06-04T06:18:32.465Z,66.78
2023-06-04T06:20:59.133Z,66.23
2023-06-04T06:23:25.760Z,66.02
2023-06-04T06:25:53.042Z,65.27
2023-06-04T06:28:19.797Z,65.12
2023-06-04T06:30:46.922Z,64.83
2023-06-04T06:33:13.687Z,64.30
2023-06-04T06:35:40.925Z,64.12
2023-06-04T06:38:07.518Z,63.72
2023-06-04T06:40:34.117Z,63.52
2023-06-04T06:43:00.744Z,63.04
2023-06-04T06:45:27.544Z,62.65
2023-06-04T06:47:54.348Z,62.32
2023-06-04T06:50:21.073Z,61.82
2023-06-04T06:52:47.693Z,61.02
2023-06-04T06:55:14.274Z,60.44
2023-06-04T06:57:41.077Z,60.16
2023-06-04T07:00:08.916Z,59.71
2023-06-04T07:02:36.142Z,59.30
2023-06-04T07:05:02.933Z,58.85
2023-06-04T07:07:29.689Z,58.16
2023-06-04T07:09:56.303Z,57.06
2023-06-04T07:12:22.857Z,56.86
2023-06-04T07:14:49.724Z,56.64
2023-06-04T07:17:18.805Z,56.61
2023-06-04T07:19:45.526Z,55.78
2023-06-04T07:22:12.367Z,54.76
2023-06-04T07:24:38.936Z,53.75
2023-06-04T07:27:15.207Z,52.96
2023-06-04T07:29:44.957Z,53.85
2023-06-04T07:32:12.449Z,53.07
2023-06-04T07:34:41.261Z,51.53
2023-06-04T07:37:09.004Z,53.16
2023-06-04T07:39:35.601Z,52.47
2023-06-04T07:42:02.497Z,53.08
2023-06-04T07:44:29.170Z,52.94
2023-06-04T07:46:55.739Z,53.01
2023-06-04T07:49:22.315Z,51.78
2023-06-04T07:51:49.071Z,49.75
2023-06-04T07:54:15.661Z,50.67
2023-06-04T07:56:42.250Z,50.29
2023-06-04T07:59:08.870Z,49.28
2023-06-04T08:01:35.684Z,49.07
2023-06-04T08:04:02.557Z,47.34
2023-06-04T08:06:29.233Z,47.13
2023-06-04T08:08:55.901Z,47.04
2023-06-04T08:11:25.613Z,47.03
2023-06-04T08:13:52.233Z,47.52
2023-06-04T08:16:18.864Z,48.12
2023-06-04T08:18:45.461Z,46.70
2023-06-04T08:21:13.073Z,46.64
2023-06-04T08:23:39.766Z,47.83
2023-06-04T08:26:08.956Z,47.65
2023-06-04T08:28:36.211Z,46.30
2023-06-04T08:31:03.039Z,45.07
2023-06-04T08:33:29.786Z,44.44
2023-06-04T08:35:56.638Z,45.20
2023-06-04T08:38:23.300Z,44.00
2023-06-04T08:40:54.026Z,43.85
2023-06-04T08:43:21.140Z,44.67
2023-06-04T08:45:50.356Z,43.18
2023-06-04T08:48:19.485Z,43.45
2023-06-04T08:50:48.879Z,42.39
2023-06-04T08:53:16.921Z,41.80
2023-06-04T08:55:44.002Z,42.73
2023-06-04T08:58:12.089Z,41.97
2023-06-04T09:00:38.664Z,40.34
2023-06-04T09:03:05.655Z,41.34
2023-06-04T09:05:33.472Z,40.25
2023-06-04T09:08:02.299Z,39.81
2023-06-04T09:10:31.157Z,40.89
2023-06-04T09:13:02.319Z,39.07
2023-06-04T09:15:28.902Z,39.92
2023-06-04T09:17:55.835Z,39.34
2023-06-04T09:20:23.854Z,38.66
2023-06-04T09:22:50.861Z,38.54
2023-06-04T09:25:28.356Z,37.68
2023-06-04T09:27:56.779Z,38.74
2023-06-04T09:30:24.351Z,37.68
2023-06-04T09:32:51.083Z,37.05
2023-06-04T09:35:19.443Z,35.73
2023-06-04T09:37:56.969Z,36.17
2023-06-04T09:40:24.639Z,36.14
2023-06-04T09:42:59.001Z,36.21
2023-06-04T09:45:32.891Z,35.49
2023-06-04T09:48:04.448Z,34.46
2023-06-04T09:50:39.980Z,35.27
2023-06-04T09:53:21.536Z,35.39
2023-06-04T09:55:59.371Z,33.16
2023-06-04T09:58:28.314Z,33.64
2023-06-04T10:00:59.691Z,33.67
2023-06-04T10:03:31.413Z,33.89
2023-06-04T10:05:59.026Z,33.88
2023-06-04T10:08:27.110Z,34.29
2023-06-04T10:11:00.140Z,33.89
2023-06-04T10:13:29.298Z,33.97
2023-06-04T10:15:59.268Z,33.87
2023-06-04T10:18:28.068Z,32.77
2023-06-04T10:20:56.924Z,32.51
2023-06-04T10:23:24.780Z,30.30
2023-06-04T10:25:53.590Z,31.39
2023-06-04T10:28:21.779Z,32.19
2023-06-04T10:30:51.570Z,29.45
2023-06-04T10:33:21.017Z,27.67
2023-06-04T10:35:48.348Z,27.12
2023-06-04T10:38:17.928Z,26.10
2023-06-04T10:40:45.094Z,27.01
2023-06-04T10:43:13.325Z,26.78
2023-06-04T10:45:41.411Z,25.65
2023-06-04T10:48:10.322Z,24.47
2023-06-04T10:50:54.078Z,24.57
2023-06-04T10:53:22.913Z,25.24
2023-06-04T10:55:50.890Z,24.66
2023-06-04T10:58:18.992Z,25.07
2023-06-04T11:00:47.380Z,24.48
2023-06-04T11:03:14.832Z,25.57
2023-06-04T11:05:43.952Z,25.81
2023-06-04T11:08:12.442Z,24.58
2023-06-04T11:10:41.205Z,24.18
2023-06-04T11:13:08.275Z,24.00
2023-06-04T11:15:44.662Z,24.22
2023-06-04T11:18:19.484Z,24.23
2023-06-04T11:20:47.768Z,24.02
2023-06-04T11:23:15.090Z,24.13
2023-06-04T11:25:44.259Z,24.35
2023-06-04T11:28:19.174Z,24.27
2023-06-04T11:30:57.735Z,24.32
2023-06-04T11:33:24.432Z,24.10
2023-06-04T11:35:51.362Z,24.62
2023-06-04T11:38:17.942Z,24.91
2023-06-04T11:40:46.286Z,24.76
2023-06-04T11:43:13.002Z,24.65
2023-06-04T11:45:39.649Z,24.38
2023-06-04T11:48:06.659Z,24.22
2023-06-04T11:50:34.459Z,24.13
2023-06-04T11:53:01.075Z,23.88
2023-06-04T11:55:27.968Z,23.79
2023-06-04T11:57:55.445Z,23.94
2023-06-04T12:00:23.213Z,23.76
2023-06-04T12:02:55.832Z,23.97
2023-06-04T12:05:24.653Z,23.68
2023-06-04T12:07:52.162Z,23.68
2023-06-04T12:10:22.615Z,23.69
2023-06-04T12:12:56.717Z,23.70
2023-06-04T12:15:23.739Z,24.02
2023-06-04T12:17:52.262Z,23.93
2023-06-04T12:20:20.400Z,23.74
2023-06-04T12:22:48.088Z,23.77
2023-06-04T12:25:26.989Z,23.43
2023-06-04T12:27:54.272Z,23.80
2023-06-04T12:30:21.001Z,23.34
2023-06-04T12:32:47.748Z,24.06
2023-06-04T12:35:16.139Z,24.10
2023-06-04T12:37:43.151Z,24.03
2023-06-04T12:40:10.522Z,23.93
2023-06-04T12:42:37.248Z,24.47
2023-06-04T12:45:04.332Z,23.25
2023-06-04T12:47:30.937Z,23.38
2023-06-04T12:49:59.299Z,23.23
2023-06-04T12:52:26.035Z,24.85
2023-06-04T12:54:52.590Z,24.02
2023-06-04T12:57:19.269Z,23.86
2023-06-04T12:59:45.870Z,23.98
2023-06-04T13:02:12.674Z,24.44
2023-06-04T13:04:39.263Z,24.50
2023-06-04T13:07:06.810Z,24.58
2023-06-04T13:09:36.128Z,24.47
2023-06-04T13:12:02.880Z,24.40
2023-06-04T13:14:34.057Z,24.09
2023-06-04T13:17:13.979Z,24.07
2023-06-04T13:19:48.497Z,24.17
2023-06-04T13:22:15.127Z,24.10
2023-06-04T13:24:42.151Z,24.53
2023-06-04T13:27:08.981Z,24.15
2023-06-04T13:29:35.900Z,24.66
2023-06-04T13:32:02.794Z,24.92
2023-06-04T13:34:29.500Z,24.65
2023-06-04T13:36:56.626Z,24.36
2023-06-04T13:39:23.565Z,25.00
2023-06-04T13:41:50.348Z,24.81
2023-06-04T13:44:16.957Z,24.98
2023-06-04T13:46:43.735Z,25.02
2023-06-04T13:49:10.649Z,24.72
2023-06-04T13:51:37.463Z,24.97
2023-06-04T13:54:04.211Z,25.84
2023-06-04T13:56:30.776Z,25.77
2023-06-04T13:58:57.488Z,25.66
2023-06-04T14:01:24.302Z,27.05
2023-06-04T14:03:51.403Z,30.53
2023-06-04T14:06:18.294Z,31.23
2023-06-04T14:08:44.920Z,31.66
2023-06-04T14:11:12.185Z,32.47
2023-06-04T14:13:39.890Z,32.08
2023-06-04T14:16:06.729Z,32.34
2023-06-04T14:18:33.506Z,32.29
2023-06-04T14:21:00.158Z,32.17
2023-06-04T14:23:26.765Z,33.29
2023-06-04T14:25:53.340Z,32.85
2023-06-04T14:28:21.828Z,33.49
2023-06-04T14:30:48.918Z,33.93
2023-06-04T14:33:15.634Z,34.01
2023-06-04T14:35:47.711Z,34.39
2023-06-04T14:38:15.561Z,34.74
2023-06-04T14:40:44.609Z,34.77
2023-06-04T14:43:12.586Z,34.93
2023-06-04T14:45:40.587Z,35.19
2023-06-04T14:50:40.082Z,35.79
2023-06-04T14:53:09.582Z,35.91
2023-06-04T14:55:37.070Z,36.21
2023-06-04T14:58:04.927Z,35.50
2023-06-04T15:00:32.480Z,35.77
2023-06-04T15:03:00.993Z,36.48
2023-06-04T15:05:27.688Z,36.33
2023-06-04T15:07:54.304Z,36.40
2023-06-04T15:10:21.036Z,36.53
2023-06-04T15:12:47.651Z,37.42
2023-06-04T15:15:14.242Z,37.68
2023-06-04T15:17:40.880Z,37.68
2023-06-04T15:20:08.369Z,37.91
2023-06-04T15:22:35.374Z,38.04
2023-06-04T15:25:02.123Z,38.64
2023-06-04T15:27:28.816Z,38.55
2023-06-04T15:29:55.525Z,38.84
2023-06-04T15:32:22.396Z,38.99
2023-06-04T15:34:49.057Z,40.14
2023-06-04T15:37:15.738Z,39.47
2023-06-04T15:39:42.325Z,39.78
2023-06-04T15:42:12.059Z,40.34
2023-06-04T15:44:38.740Z,40.45
2023-06-04T15:47:05.375Z,40.69
2023-06-04T15:49:31.991Z,40.76
2023-06-04T15:51:58.612Z,41.00
2023-06-04T15:54:43.812Z,41.56
2023-06-04T15:57:12.137Z,42.29
2023-06-04T15:59:38.796Z,42.50
2023-06-04T16:02:07.131Z,43.56
2023-06-04T16:04:34.060Z,43.51
2023-06-04T16:07:01.145Z,43.66
2023-06-04T16:09:29.557Z,43.11
2023-06-04T16:11:56.454Z,43.28
2023-06-04T16:14:23.039Z,43.53
2023-06-04T16:16:49.673Z,44.18
2023-06-04T16:19:16.414Z,44.58
2023-06-04T16:21:43.057Z,45.05
2023-06-04T16:24:09.731Z,45.06
2023-06-04T16:26:36.470Z,44.62
2023-06-04T16:29:03.183Z,45.02
2023-06-04T16:31:29.808Z,46.00
2023-06-04T16:33:56.453Z,45.91
2023-06-04T16:36:23.058Z,45.73
2023-06-04T16:38:49.678Z,46.42
2023-06-04T16:41:17.317Z,46.24
2023-06-04T16:43:43.928Z,47.09
2023-06-04T16:46:10.539Z,47.51
2023-06-04T16:48:39.360Z,47.14
2023-06-04T16:51:06.474Z,47.63
2023-06-04T16:53:33.112Z,47.07
2023-06-04T16:55:59.762Z,47.96
2023-06-04T16:58:26.920Z,48.25
2023-06-04T17:00:54.164Z,48.73
2023-06-04T17:03:21.182Z,48.98
2023-06-04T17:05:48.130Z,48.79
2023-06-04T17:08:14.778Z,48.73
2023-06-04T17:10:41.389Z,49.14
2023-06-04T17:13:09.282Z,49.19
2023-06-04T17:15:36.052Z,49.40
2023-06-04T17:18:03.311Z,49.88
2023-06-04T17:20:31.694Z,50.02
2023-06-04T17:23:01.990Z,50.39
2023-06-04T17:25:29.922Z,50.86
2023-06-04T17:27:57.256Z,51.06
2023-06-04T17:30:27.037Z,51.64
2023-06-04T17:32:53.861Z,52.32
2023-06-04T17:35:20.485Z,52.46
2023-06-04T17:37:47.046Z,52.31
2023-06-04T17:40:13.655Z,52.60
2023-06-04T17:42:42.022Z,53.34
2023-06-04T17:45:11.235Z,53.64
2023-06-04T17:47:38.303Z,53.96
2023-06-04T17:50:08.092Z,54.24
2023-06-04T17:52:35.484Z,54.06
2023-06-04T17:55:02.580Z,54.05
2023-06-04T17:57:30.131Z,54.58
2023-06-04T17:59:56.888Z,54.79
2023-06-04T18:02:23.627Z,55.14
2023-06-04T18:04:51.644Z,55.23
2023-06-04T18:07:21.011Z,55.68
2023-06-04T18:09:48.311Z,55.91
2023-06-04T18:12:15.556Z,56.26
2023-06-04T18:14:42.388Z,56.69
2023-06-04T18:17:09.118Z,57.53
2023-06-04T18:19:35.814Z,57.56
2023-06-04T18:22:03.591Z,57.85
2023-06-04T18:24:30.280Z,58.31
2023-06-04T18:26:56.974Z,58.70
2023-06-04T18:29:23.510Z,58.98
2023-06-04T18:31:51.298Z,59.10
2023-06-04T18:34:21.561Z,59.22
2023-06-04T18:36:54.193Z,59.18
2023-06-04T18:39:25.425Z,59.41
2023-06-04T18:41:55.393Z,59.57
2023-06-04T18:44:23.145Z,59.68
2023-06-04T18:46:49.896Z,60.39
2023-06-04T18:49:16.541Z,60.98
2023-06-04T18:51:43.570Z,61.03
2023-06-04T18:54:10.178Z,61.19
2023-06-04T18:56:36.814Z,61.67
2023-06-04T18:59:03.556Z,61.96
2023-06-04T19:01:30.214Z,62.12
2023-06-04T19:03:56.961Z,62.48
2023-06-04T19:06:23.588Z,62.94
2023-06-04T19:08:50.193Z,63.45
2023-06-04T19:11:17.219Z,63.85
2023-06-04T19:13:43.785Z,64.37
2023-06-04T19:16:13.614Z,64.65
2023-06-04T19:18:40.350Z,64.76
2023-06-04T19:21:07.054Z,65.32
2023-06-04T19:23:35.288Z,65.57
2023-06-04T19:26:02.684Z,65.81
2023-06-04T19:28:29.274Z,66.18
2023-06-04T19:30:56.013Z,66.53
2023-06-04T19:33:22.645Z,66.90
2023-06-04T19:35:49.460Z,66.86
2023-06-04T19:38:16.355Z,67.10
2023-06-04T19:40:43.085Z,67.24
2023-06-04T19:43:11.057Z,67.30
2023-06-04T19:45:38.358Z,66.98
2023-06-04T19:48:05.191Z,66.98
2023-06-04T19:50:31.964Z,66.90
2023-06-04T19:52:58.575Z,66.94
2023-06-04T19:55:25.256Z,67.17
2023-06-04T19:57:52.093Z,67.40
2023-06-04T20:00:18.715Z,67.44
2023-06-04T20:02:45.497Z,67.29
2023-06-04T20:05:12.330Z,67.29
2023-06-04T20:07:39.310Z,67.20
2023-06-04T20:10:07.277Z,67.12
2023-06-04T20:12:33.864Z,67.38
2023-06-04T20:15:00.755Z,67.70
2023-06-04T20:17:27.386Z,67.40
2023-06-04T20:19:55.950Z,67.64
2023-06-04T20:22:22.512Z,67.72
2023-06-04T20:24:49.140Z,67.72
2023-06-04T20:27:18.216Z,67.93
2023-06-04T20:29:45.353Z,67.89
2023-06-04T20:32:12.224Z,68.24
2023-06-04T20:34:38.836Z,68.57
2023-06-04T20:37:05.415Z,68.54
2023-06-04T20:39:32.415Z,68.84
2023-06-04T20:41:59.260Z,69.10
2023-06-04T20:44:25.809Z,69.07
2023-06-04T20:46:52.637Z,69.27
2023-06-04T20:49:19.314Z,69.20
2023-06-04T20:51:46.003Z,69.21
2023-06-04T20:54:12.693Z,69.31
2023-06-04T20:56:39.266Z,69.33
2023-06-04T20:59:06.015Z,69.47
2023-06-04T21:01:32.719Z,69.61
2023-06-04T21:04:01.429Z,69.83
2023-06-04T21:06:28.445Z,69.69
2023-06-04T21:08:55.008Z,69.90
2023-06-04T21:11:21.711Z,70.03
2023-06-04T21:13:48.274Z,70.33
2023-06-04T21:16:14.970Z,70.67
2023-06-04T21:18:41.566Z,70.97
2023-06-04T21:21:08.437Z,71.10
2023-06-04T21:23:35.290Z,71.22
2023-06-04T21:26:01.923Z,71.21
2023-06-04T21:28:28.514Z,71.27
2023-06-04T21:30:55.175Z,71.63
2023-06-04T21:33:21.749Z,71.87
2023-06-04T21:35:48.364Z,71.80
2023-06-04T21:38:15.257Z,71.94
2023-06-04T21:40:41.793Z,71.78
2023-06-04T21:43:08.376Z,72.02
2023-06-04T21:45:35.486Z,72.07
2023-06-04T21:48:03.457Z,72.16
2023-06-04T21:50:30.060Z,72.26
2023-06-04T21:52:56.702Z,72.30
2023-06-04T21:55:24.905Z,72.17
2023-06-04T21:57:52.536Z,72.39
